Time;durP1;ratioP1;P1;durP2;ratioP2;P2;SDS_P1;SDS_P2;PMS_P1;PMS_P2;Temp;Humidity;BMP_temperature;BMP_pressure;BME280_temperature;BME280_humidity;BME280_pressure;Samples;Min_cycle;Max_cycle;Signal;HPM_P1;HPM_P2
2022/05/23 00:04:54;;;;;;;11.63;7.90;;;25.10;70.00;;;;;;10985383;32;20006;-75
2022/05/23 00:10:56;;;;;;;7.18;6.28;;;25.10;69.70;;;;;;10985326;32;20023;-75
2022/05/23 00:16:59;;;;;;;8.32;7.20;;;25.10;69.40;;;;;;10984798;32;20038;-75
2022/05/23 00:23:01;;;;;;;9.38;8.05;;;25.00;69.20;;;;;;10971272;32;20103;-74
2022/05/23 00:29:03;;;;;;;11.43;6.25;;;25.00;69.10;;;;;;10984656;32;20041;-74
2022/05/23 00:35:18;;;;;;;7.80;6.53;;;25.00;69.40;;;;;;10984299;32;20026;-74
2022/05/23 00:47:53;;;;;;;9.45;8.25;;;25.00;69.40;;;;;;10984025;32;20026;-74
2022/05/23 00:54:05;;;;;;;9.55;6.60;;;25.00;69.40;;;;;;10983572;32;20033;-74
2022/05/23 01:00:10;;;;;;;8.98;6.57;;;25.00;69.30;;;;;;10970042;32;20030;-74
2022/05/23 01:06:12;;;;;;;13.68;6.10;;;25.10;69.20;;;;;;10970016;32;20041;-74
2022/05/23 01:12:18;;;;;;;8.50;5.97;;;25.00;69.70;;;;;;10979847;32;20018;-75
2022/05/23 01:18:20;;;;;;;9.27;7.35;;;25.00;70.00;;;;;;11053516;27;20038;-74
2022/05/23 01:24:36;;;;;;;8.25;6.87;;;24.90;69.90;;;;;;11059130;32;20034;-74
2022/05/23 01:30:40;;;;;;;11.38;7.05;;;24.90;69.90;;;;;;11055835;32;20452;-74
2022/05/23 01:36:43;;;;;;;9.32;7.47;;;24.90;70.20;;;;;;11058483;32;20048;-74
2022/05/23 01:42:47;;;;;;;8.57;6.62;;;24.80;70.00;;;;;;11054049;32;20018;-74
2022/05/23 01:48:49;;;;;;;9.15;6.75;;;24.90;70.10;;;;;;11058214;32;20099;-74
2022/05/23 01:54:52;;;;;;;14.13;7.87;;;24.90;70.20;;;;;;11057901;32;20402;-75
2022/05/23 02:01:13;;;;;;;15.00;7.68;;;24.80;70.70;;;;;;11057788;32;20040;-74
2022/05/23 02:07:16;;;;;;;8.40;6.15;;;24.80;70.70;;;;;;11053493;32;20022;-74
2022/05/23 02:13:18;;;;;;;8.05;5.47;;;24.70;71.20;;;;;;11057487;32;20322;-74
2022/05/23 02:19:20;;;;;;;8.40;6.40;;;24.70;71.10;;;;;;11057410;32;20034;-74
2022/05/23 02:25:27;;;;;;;7.60;5.93;;;24.70;71.50;;;;;;11057209;32;20018;-73
2022/05/23 02:31:30;;;;;;;7.72;6.30;;;24.60;71.80;;;;;;11052728;32;20049;-75
2022/05/23 02:37:33;;;;;;;7.72;5.18;;;24.60;71.90;;;;;;11056743;32;20044;-74
2022/05/23 02:43:37;;;;;;;7.05;5.25;;;24.60;72.00;;;;;;11056525;32;20327;-74
2022/05/23 02:49:39;;;;;;;7.55;5.93;;;24.60;71.80;;;;;;11056596;32;20058;-74
2022/05/23 02:55:43;;;;;;;9.15;6.47;;;24.50;72.10;;;;;;11056376;32;20048;-75
2022/05/23 03:08:09;;;;;;;8.80;6.60;;;24.40;72.00;;;;;;11061592;32;20030;-74
2022/05/23 03:14:11;;;;;;;7.15;5.45;;;24.30;72.20;;;;;;11063843;32;20071;-74
2022/05/23 03:20:14;;;;;;;8.90;6.62;;;24.40;72.50;;;;;;11063776;32;20054;-74
2022/05/23 03:32:42;;;;;;;9.93;7.72;;;24.40;72.50;;;;;;11061755;32;20428;-74
2022/05/23 03:38:44;;;;;;;10.50;7.87;;;24.30;72.60;;;;;;11062850;32;20014;-73
2022/05/23 03:44:48;;;;;;;11.23;9.77;;;24.20;73.00;;;;;;11062755;32;20026;-74
2022/05/23 03:50:50;;;;;;;12.77;8.55;;;24.10;73.50;;;;;;11062484;32;20057;-75
2022/05/23 03:56:57;;;;;;;9.50;8.45;;;24.00;73.20;;;;;;11062050;32;20354;-75
2022/05/23 04:02:59;;;;;;;11.40;8.93;;;24.10;73.00;;;;;;11062192;32;20552;-74
2022/05/23 04:09:02;;;;;;;11.15;8.20;;;24.10;73.10;;;;;;11047021;32;20037;-74
2022/05/23 04:15:14;;;;;;;10.32;9.20;;;24.00;73.40;;;;;;11061176;32;20418;-75
2022/05/23 04:21:17;;;;;;;9.85;8.65;;;24.00;73.60;;;;;;11061204;32;20061;-74
2022/05/23 04:27:20;;;;;;;9.80;6.90;;;24.10;73.20;;;;;;11061327;32;20022;-75
2022/05/23 04:39:49;;;;;;;10.00;8.00;;;24.20;73.20;;;;;;11060642;32;20026;-75
2022/05/23 04:45:54;;;;;;;9.43;6.80;;;24.20;73.30;;;;;;11046864;32;20412;-75
2022/05/23 04:51:58;;;;;;;12.52;6.85;;;24.20;73.20;;;;;;11060544;32;20094;-74
2022/05/23 04:58:04;;;;;;;10.02;8.10;;;24.30;73.10;;;;;;11060164;32;20353;-74
2022/05/23 05:04:07;;;;;;;9.10;6.78;;;24.30;73.30;;;;;;11059772;32;20026;-74
2022/05/23 05:10:10;;;;;;;7.50;6.45;;;24.30;73.50;;;;;;11046046;32;20053;-74
2022/05/23 05:16:13;;;;;;;9.15;7.45;;;24.30;73.10;;;;;;11059416;32;20056;-75
2022/05/23 05:22:15;;;;;;;8.73;7.10;;;24.30;73.10;;;;;;11059196;32;20026;-74
2022/05/23 05:28:20;;;;;;;8.57;7.15;;;24.30;73.00;;;;;;11058166;32;20018;-74
2022/05/23 05:34:41;;;;;;;8.70;6.80;;;24.30;73.20;;;;;;11058659;32;20022;-74
2022/05/23 05:40:46;;;;;;;8.32;6.62;;;24.30;73.10;;;;;;11057877;32;20052;-74
2022/05/23 05:47:10;;;;;;;8.50;6.37;;;24.50;72.60;;;;;;11058243;32;20061;-74
2022/05/23 05:53:20;;;;;;;9.07;6.12;;;24.60;72.40;;;;;;11058209;32;20345;-73
2022/05/23 05:59:39;;;;;;;11.85;6.75;;;24.70;72.30;;;;;;11044278;32;20018;-73
2022/05/23 06:12:03;;;;;;;12.15;7.03;;;24.70;72.20;;;;;;11057015;32;20026;-74
2022/05/23 06:18:06;;;;;;;12.57;7.03;;;24.70;72.20;;;;;;11047246;32;20023;-73
2022/05/23 06:24:08;;;;;;;8.63;6.40;;;24.70;72.10;;;;;;11046769;32;20030;-73
2022/05/23 06:30:32;;;;;;;9.68;6.80;;;24.70;72.10;;;;;;11022257;32;20094;-73
2022/05/23 06:36:59;;;;;;;8.82;6.90;;;24.80;72.00;;;;;;10932185;32;20057;-73
2022/05/23 06:43:01;;;;;;;8.68;6.53;;;24.90;72.00;;;;;;10933736;32;20346;-72
2022/05/23 06:49:06;;;;;;;8.02;6.15;;;24.90;71.70;;;;;;10920610;32;20081;-72
2022/05/23 06:55:28;;;;;;;7.35;6.03;;;24.90;71.60;;;;;;10938527;32;20049;-72
2022/05/23 07:01:31;;;;;;;9.35;5.40;;;25.00;71.30;;;;;;10916160;32;20395;-72
2022/05/23 07:14:00;;;;;;;8.07;5.45;;;25.10;71.10;;;;;;11003903;32;20022;-72
2022/05/23 07:20:05;;;;;;;8.35;5.45;;;25.10;71.20;;;;;;11016945;32;20014;-72
2022/05/23 07:26:11;;;;;;;6.35;4.93;;;25.10;71.10;;;;;;11005865;32;20053;-72
2022/05/23 07:32:16;;;;;;;7.65;5.65;;;25.10;71.10;;;;;;11051889;32;20415;-73
2022/05/23 07:38:19;;;;;;;6.95;5.47;;;25.20;71.00;;;;;;11016785;32;20049;-73
2022/05/23 07:44:22;;;;;;;8.18;4.35;;;25.30;70.80;;;;;;11014044;32;20030;-74
2022/05/23 07:50:25;;;;;;;7.12;5.15;;;25.40;70.50;;;;;;11018438;32;20023;-73
2022/05/23 08:02:50;;;;;;;6.65;5.15;;;25.70;70.00;;;;;;11062002;32;20040;-76
2022/05/23 08:08:53;;;;;;;6.45;4.62;;;26.00;69.50;;;;;;11043898;32;20026;-73
2022/05/23 08:14:57;;;;;;;7.18;5.10;;;26.20;69.10;;;;;;11061368;32;20045;-73
2022/05/23 08:21:01;;;;;;;6.95;4.68;;;26.30;68.80;;;;;;11061072;32;20055;-72
2022/05/23 08:27:05;;;;;;;5.80;4.12;;;26.40;68.40;;;;;;11047616;32;20014;-74
2022/05/23 08:33:12;;;;;;;;;;;26.40;68.30;;;;;;11061033;32;20018;-76
2022/05/23 08:39:15;;;;;;;5.93;4.35;;;26.60;68.00;;;;;;11059486;32;19944;-74
2022/05/23 08:45:37;;;;;;;5.37;4.32;;;26.60;67.80;;;;;;11057134;32;20018;-73
2022/05/23 08:52:06;;;;;;;6.87;4.15;;;26.80;67.30;;;;;;11059836;32;20060;-73
2022/05/23 08:58:14;;;;;;;7.12;4.28;;;27.10;66.40;;;;;;11038849;32;20033;-75
2022/05/23 09:04:42;;;;;;;10.27;5.40;;;27.30;65.90;;;;;;11018857;32;20030;-74
2022/05/23 09:10:49;;;;;;;;;;;27.30;65.20;;;;;;11021527;32;20052;-73
2022/05/23 09:16:54;;;;;;;7.07;4.15;;;27.40;65.00;;;;;;10583206;26;11972051;-74
2022/05/23 09:23:00;;;;;;;5.78;4.22;;;27.30;65.10;;;;;;10903953;32;20058;-73
2022/05/23 09:29:03;;;;;;;6.53;4.68;;;27.20;65.10;;;;;;10902169;32;20027;-75
2022/05/23 09:35:14;;;;;;;11.18;4.85;;;27.20;65.10;;;;;;10901643;32;20387;-76
2022/05/23 09:47:58;;;;;;;11.40;7.18;;;27.60;64.30;;;;;;10943639;32;20347;-75
2022/05/23 09:54:03;;;;;;;7.37;5.53;;;27.70;64.00;;;;;;10930536;32;20473;-74
2022/05/23 10:00:10;;;;;;;9.63;4.97;;;27.90;63.50;;;;;;10943854;32;20335;-76
2022/05/23 10:06:17;;;;;;;11.30;7.10;;;28.10;63.30;;;;;;10943386;32;20015;-75
2022/05/23 10:12:22;;;;;;;8.50;6.32;;;28.10;63.00;;;;;;10943168;32;20045;-78
2022/05/23 10:18:38;;;;;;;9.25;5.90;;;28.10;63.10;;;;;;10923324;32;20027;-77
2022/05/23 10:25:06;;;;;;;7.78;5.93;;;28.00;63.20;;;;;;10935744;32;20130;-75
2022/05/23 10:31:12;;;;;;;;;;;27.90;63.70;;;;;;10925318;32;20011;-76
2022/05/23 10:37:25;;;;;;;11.40;6.40;;;27.80;63.60;;;;;;10940307;32;19966;-75
2022/05/23 10:43:30;;;;;;;7.35;5.07;;;27.90;63.40;;;;;;10938047;32;20053;-76
2022/05/23 10:50:13;;;;;;;9.50;6.15;;;27.80;63.50;;;;;;10942040;32;20027;-75
2022/05/23 10:56:35;;;;;;;9.55;7.35;;;28.00;63.30;;;;;;10826685;32;20066;-75
2022/05/23 11:02:49;;;;;;;8.43;5.57;;;28.10;63.20;;;;;;10804434;33;20031;-75
2022/05/23 11:09:25;;;;;;;7.50;5.18;;;28.30;62.90;;;;;;10811717;33;20036;-75
2022/05/23 11:15:46;;;;;;;6.12;4.97;;;28.60;62.50;;;;;;10805858;33;20412;-74
2022/05/23 11:22:20;;;;;;;6.32;4.57;;;28.80;61.90;;;;;;10818486;32;20074;-74
2022/05/23 11:35:03;;;;;;;8.35;5.07;;;29.00;61.20;;;;;;10911337;32;20384;-73
2022/05/23 11:41:34;;;;;;;7.43;4.75;;;29.00;61.10;;;;;;10911073;32;20027;-73
2022/05/23 11:47:47;;;;;;;7.35;5.70;;;29.10;61.00;;;;;;10936592;32;20058;-74
2022/05/23 11:54:08;;;;;;;9.15;7.15;;;29.00;61.00;;;;;;10945097;32;20061;-74
2022/05/23 12:00:36;;;;;;;7.00;5.05;;;29.20;60.70;;;;;;10943581;32;20069;-74
2022/05/23 12:06:43;;;;;;;10.10;5.07;;;29.40;60.00;;;;;;10934926;32;20037;-74
2022/05/23 12:12:50;;;;;;;8.25;5.87;;;29.60;60.00;;;;;;10947689;32;20031;-79
2022/05/23 12:19:06;;;;;;;;;;;29.70;59.60;;;;;;10921133;32;20031;-74
2022/05/23 12:25:08;;;;;;;12.07;6.82;;;29.80;59.40;;;;;;10909451;32;19922;-73
2022/05/23 12:31:16;;;;;;;7.28;5.97;;;29.80;58.90;;;;;;10907245;32;20015;-73
2022/05/23 12:37:36;;;;;;;8.75;4.78;;;29.90;59.00;;;;;;10930020;32;20031;-74
2022/05/23 12:44:07;;;;;;;21.62;6.05;;;30.20;58.30;;;;;;10946457;32;20399;-74
2022/05/23 12:50:37;;;;;;;5.00;3.90;;;30.10;58.20;;;;;;10946418;32;20057;-74
2022/05/23 12:57:16;;;;;;;5.70;4.72;;;29.90;58.50;;;;;;10932456;32;20387;-74
2022/05/23 13:03:39;;;;;;;7.20;5.82;;;30.00;58.50;;;;;;10943637;32;20057;-74
2022/05/23 13:09:48;;;;;;;11.27;4.60;;;30.10;57.40;;;;;;10932191;32;20438;-74
2022/05/23 13:15:51;;;;;;;5.93;4.05;;;30.20;57.10;;;;;;10943113;32;20084;-74
2022/05/23 13:22:06;;;;;;;7.22;5.28;;;30.30;56.80;;;;;;10945245;32;20337;-74
2022/05/23 13:28:31;;;;;;;11.65;5.05;;;30.30;56.40;;;;;;10936804;32;20309;-74
2022/05/23 13:35:22;;;;;;;7.50;5.22;;;30.20;55.90;;;;;;10944861;32;20015;-77
2022/05/23 13:41:27;;;;;;;11.57;5.53;;;30.00;56.40;;;;;;10941630;32;20335;-74
2022/05/23 13:47:32;;;;;;;13.80;6.72;;;29.90;56.30;;;;;;10942491;32;20022;-76
2022/05/23 13:54:03;;;;;;;6.87;3.60;;;29.80;56.50;;;;;;10944231;32;20042;-74
2022/05/23 14:00:21;;;;;;;8.85;6.05;;;29.70;56.40;;;;;;10942584;32;20093;-74
2022/05/23 14:07:20;;;;;;;7.10;4.68;;;29.80;55.90;;;;;;10919517;32;20347;-74
2022/05/23 14:13:22;;;;;;;7.07;4.68;;;29.80;55.70;;;;;;10901591;32;20053;-75
2022/05/23 14:19:40;;;;;;;10.52;5.78;;;29.90;55.70;;;;;;10901231;32;20039;-75
2022/05/23 14:25:54;;;;;;;5.93;4.32;;;30.10;55.10;;;;;;10931796;32;20042;-74
2022/05/23 14:32:01;;;;;;;6.95;3.97;;;30.10;54.80;;;;;;10938256;32;20035;-75
2022/05/23 14:38:26;;;;;;;7.40;5.30;;;30.30;54.60;;;;;;10942412;32;20027;-74
2022/05/23 14:45:13;;;;;;;6.97;4.75;;;30.30;54.00;;;;;;10938350;32;20057;-74
2022/05/23 14:51:39;;;;;;;5.37;3.92;;;30.40;53.80;;;;;;10823618;32;20058;-74
2022/05/23 15:04:28;;;;;;;8.18;5.20;;;30.30;54.00;;;;;;10823375;32;20051;-74
2022/05/23 15:10:32;;;;;;;6.60;3.55;;;30.30;54.10;;;;;;10826124;32;20024;-74
2022/05/23 15:16:36;;;;;;;6.28;4.25;;;30.40;53.90;;;;;;10822809;32;20054;-74
2022/05/23 15:22:41;;;;;;;8.93;4.22;;;30.40;53.20;;;;;;10890912;32;20082;-73
2022/05/23 15:28:50;;;;;;;4.25;2.90;;;30.40;53.10;;;;;;10899686;32;20400;-75
2022/05/23 15:34:52;;;;;;;;;;;30.30;53.30;;;;;;10890757;32;20023;-75
2022/05/23 15:40:55;;;;;;;5.55;4.12;;;30.30;53.10;;;;;;10903911;32;19922;-74
2022/05/23 15:46:58;;;;;;;4.18;2.30;;;30.40;52.90;;;;;;10889576;32;20026;-74
2022/05/23 15:53:01;;;;;;;10.82;3.87;;;30.40;52.70;;;;;;10933625;32;20024;-73
2022/05/23 15:59:04;;;;;;;5.95;3.62;;;30.40;52.80;;;;;;10939426;32;20043;-74
2022/05/23 16:05:07;;;;;;;7.70;2.85;;;30.40;52.30;;;;;;10895180;32;20023;-73
2022/05/23 16:11:17;;;;;;;5.60;3.33;;;30.40;52.10;;;;;;10904491;32;20023;-74
2022/05/23 16:17:19;;;;;;;10.48;4.90;;;30.40;51.80;;;;;;10909921;32;20404;-75
2022/05/23 16:23:23;;;;;;;6.20;3.40;;;30.40;52.00;;;;;;10909636;32;20028;-75
2022/05/23 16:29:27;;;;;;;3.50;2.03;;;30.30;51.90;;;;;;10895235;32;20439;-74
2022/05/23 16:41:51;;;;;;;10.93;3.05;;;30.30;51.90;;;;;;10909143;32;20061;-74
2022/05/23 16:47:53;;;;;;;8.00;3.30;;;30.10;53.00;;;;;;10895426;32;20328;-75
2022/05/23 16:53:55;;;;;;;4.37;2.75;;;30.00;53.60;;;;;;10908536;32;20019;-73
2022/05/23 16:59:58;;;;;;;4.15;2.75;;;29.80;53.60;;;;;;10904384;32;20031;-73
2022/05/23 17:06:00;;;;;;;7.45;3.60;;;29.80;54.10;;;;;;10894980;32;20320;-74
2022/05/23 17:12:04;;;;;;;5.53;3.42;;;29.70;54.60;;;;;;10907895;32;20028;-73
2022/05/23 17:18:09;;;;;;;4.05;2.42;;;29.50;55.50;;;;;;11041672;27;20026;-74
2022/05/23 17:24:12;;;;;;;11.50;4.47;;;29.60;55.10;;;;;;11057574;32;20368;-74
2022/05/23 17:30:15;;;;;;;5.03;2.90;;;29.60;55.10;;;;;;11055266;32;20014;-74
2022/05/23 17:36:17;;;;;;;12.20;4.53;;;29.50;55.10;;;;;;11058138;32;20026;-74
2022/05/23 17:42:20;;;;;;;6.53;3.37;;;29.50;55.40;;;;;;11044992;32;20102;-74
2022/05/23 17:48:22;;;;;;;6.97;3.53;;;29.60;55.80;;;;;;11058639;32;20079;-74
2022/05/23 17:54:24;;;;;;;4.18;2.78;;;29.70;56.00;;;;;;11056677;32;20022;-74
2022/05/23 18:00:27;;;;;;;10.07;3.67;;;29.40;56.70;;;;;;11029500;32;20053;-73
2022/05/23 18:06:29;;;;;;;8.32;2.80;;;29.00;57.70;;;;;;11023485;32;20030;-73
2022/05/23 18:12:31;;;;;;;4.47;2.87;;;28.80;58.30;;;;;;11038653;32;20389;-74
2022/05/23 18:25:17;;;;;;;11.35;3.08;;;28.40;59.60;;;;;;11026784;32;20040;-74
2022/05/23 18:31:29;;;;;;;3.65;2.37;;;28.30;59.70;;;;;;11038038;32;20445;-74
2022/05/23 18:37:31;;;;;;;5.53;3.03;;;28.30;59.80;;;;;;11047614;32;20056;-74
2022/05/23 18:43:34;;;;;;;4.30;2.33;;;28.20;59.90;;;;;;11057155;32;20022;-73
2022/05/23 18:49:45;;;;;;;4.22;2.53;;;28.10;60.30;;;;;;11024256;32;20311;-73
2022/05/23 18:55:47;;;;;;;7.53;2.60;;;28.00;60.50;;;;;;11019950;32;20022;-74
2022/05/23 19:01:51;;;;;;;4.47;2.28;;;27.90;60.80;;;;;;11033446;32;20036;-73
2022/05/23 19:07:57;;;;;;;3.30;2.20;;;27.80;61.60;;;;;;11009194;32;20403;-73
2022/05/23 19:14:01;;;;;;;2.05;1.85;;;27.70;61.70;;;;;;11004177;32;20041;-73
2022/05/23 19:20:04;;;;;;;2.85;1.87;;;27.70;61.70;;;;;;11016488;32;20322;-73
2022/05/23 19:26:15;;;;;;;3.80;1.75;;;27.70;61.80;;;;;;11003456;32;20014;-73
2022/05/23 19:32:29;;;;;;;12.55;5.55;;;27.60;61.90;;;;;;11017915;32;20018;-73
2022/05/23 19:38:32;;;;;;;9.88;4.78;;;27.50;62.10;;;;;;11017081;32;20022;-74
2022/05/23 19:44:34;;;;;;;8.90;5.18;;;27.40;62.20;;;;;;11003540;32;20030;-73
2022/05/23 19:50:40;;;;;;;8.85;4.50;;;27.30;62.40;;;;;;11023977;32;20014;-73
2022/05/23 19:56:43;;;;;;;8.80;4.95;;;27.30;62.60;;;;;;11024190;32;20053;-74
2022/05/23 20:09:08;;;;;;;8.27;5.10;;;27.10;63.00;;;;;;11023851;32;20065;-74
2022/05/23 20:15:24;;;;;;;9.85;4.43;;;27.00;63.40;;;;;;11022437;32;20041;-72
2022/05/23 20:21:53;;;;;;;10.38;4.55;;;26.90;64.30;;;;;;11009409;32;20030;-72
2022/05/23 20:28:16;;;;;;;5.82;3.70;;;26.80;65.00;;;;;;11023105;32;20041;-72
2022/05/23 20:34:18;;;;;;;6.50;4.12;;;26.80;65.20;;;;;;11009284;32;20152;-72
2022/05/23 20:40:20;;;;;;;5.85;3.70;;;26.80;65.80;;;;;;11022559;32;20387;-72
2022/05/23 20:46:25;;;;;;;6.60;3.85;;;26.60;66.60;;;;;;11022405;32;20076;-72
2022/05/23 20:52:28;;;;;;;3.78;2.55;;;26.60;67.10;;;;;;11006236;32;20023;-72
2022/05/23 20:58:31;;;;;;;4.65;3.12;;;26.50;67.40;;;;;;11018005;32;20026;-72
2022/05/23 21:04:37;;;;;;;4.93;2.60;;;26.40;68.00;;;;;;11018948;32;20018;-72
2022/05/23 21:10:40;;;;;;;6.78;2.55;;;26.30;68.70;;;;;;11021598;32;20398;-72
2022/05/23 21:16:42;;;;;;;5.37;2.90;;;26.30;69.10;;;;;;11021378;32;20330;-72
2022/05/23 21:22:47;;;;;;;5.85;3.37;;;26.20;69.80;;;;;;11021244;32;20296;-73
2022/05/23 21:28:51;;;;;;;4.47;2.97;;;26.10;69.90;;;;;;11020785;32;20045;-73
2022/05/23 21:34:53;;;;;;;5.75;3.30;;;26.00;70.50;;;;;;11020734;32;20022;-72
2022/05/23 21:47:20;;;;;;;5.70;3.53;;;25.90;71.00;;;;;;11020383;32;20041;-75
2022/05/23 21:53:22;;;;;;;6.00;3.28;;;25.80;71.10;;;;;;11019903;32;20042;-73
2022/05/23 21:59:24;;;;;;;7.80;3.87;;;25.80;71.40;;;;;;11017486;32;20026;-75
2022/05/23 22:05:26;;;;;;;7.85;4.18;;;25.70;71.50;;;;;;11019618;32;20314;-75
2022/05/23 22:11:29;;;;;;;6.15;4.55;;;25.70;71.90;;;;;;11019084;32;20044;-72
2022/05/23 22:17:31;;;;;;;6.65;3.78;;;25.60;72.30;;;;;;11019081;32;20049;-75
2022/05/23 22:23:33;;;;;;;7.40;4.32;;;25.50;72.80;;;;;;11019044;32;20044;-72
2022/05/23 22:29:36;;;;;;;4.62;3.22;;;25.40;73.10;;;;;;11005087;32;20030;-76
2022/05/23 22:35:38;;;;;;;8.77;4.78;;;25.30;73.50;;;;;;11018469;32;20065;-73
2022/05/23 22:42:30;;;;;;;7.90;4.07;;;25.30;73.70;;;;;;11010513;32;20022;-75
2022/05/23 22:48:32;;;;;;;5.90;4.12;;;25.30;73.90;;;;;;11018261;32;20022;-72
2022/05/23 22:54:34;;;;;;;7.97;4.15;;;25.40;73.70;;;;;;11013787;32;20014;-73
2022/05/23 23:00:48;;;;;;;7.80;5.07;;;25.30;73.80;;;;;;11017849;32;20026;-72
2022/05/23 23:06:57;;;;;;;6.68;3.80;;;25.30;73.90;;;;;;11013765;32;20029;-74
2022/05/23 23:12:59;;;;;;;12.98;6.78;;;25.30;74.10;;;;;;11017788;32;20334;-76
2022/05/23 23:19:01;;;;;;;9.38;6.10;;;25.20;74.60;;;;;;11012664;32;20014;-76
2022/05/23 23:25:04;;;;;;;5.47;3.92;;;25.10;75.00;;;;;;11021591;32;20014;-75
2022/05/23 23:31:07;;;;;;;7.90;4.82;;;25.00;75.40;;;;;;11019459;32;20023;-73
2022/05/23 23:43:53;;;;;;;6.82;4.75;;;25.00;75.70;;;;;;11017983;32;20072;-76
2022/05/23 23:49:55;;;;;;;10.35;5.05;;;24.90;75.80;;;;;;11008389;32;20026;-73
2022/05/23 23:55:58;;;;;;;8.60;5.45;;;24.90;76.10;;;;;;11008756;32;20037;-72
